Time;durP1;ratioP1;P1;durP2;ratioP2;P2;SDS_P1;SDS_P2;PMS_P1;PMS_P2;Temp;Humidity;BMP_temperature;BMP_pressure;BME280_temperature;BME280_humidity;BME280_pressure;Samples;Min_cycle;Max_cycle;Signal;HPM_P1;HPM_P2
2022/02/17 00:00:36;;;;;;;0.85;0.10;;;;;;;13.56;59.60;94238.94;5032589;28;20666;-72
2022/02/17 00:03:01;;;;;;;0.10;0.10;;;;;;;13.36;60.21;94244.19;5050541;28;20044;-70
2022/02/17 00:05:27;;;;;;;0.10;0.10;;;;;;;13.61;59.61;94174.56;5050796;28;20029;-71
2022/02/17 00:07:54;;;;;;;0.10;0.10;;;;;;;13.38;60.35;94236.59;5037117;28;20366;-70
2022/02/17 00:10:23;;;;;;;0.80;0.10;;;;;;;13.51;60.51;94227.41;5046436;28;20032;-72
2022/02/17 00:12:49;;;;;;;0.30;0.10;;;;;;;13.49;61.25;94218.94;5032480;28;20025;-71
2022/02/17 00:15:14;;;;;;;0.03;0.03;;;;;;;13.06;62.25;94213.63;5032663;28;20029;-71
2022/02/17 00:17:42;;;;;;;0.10;0.10;;;;;;;12.97;63.05;94195.84;5033560;28;20044;-71
2022/02/17 00:20:08;;;;;;;0.43;0.10;;;;;;;13.27;62.63;94212.28;5036755;28;20117;-71
2022/02/17 00:22:34;;;;;;;0.10;0.10;;;;;;;13.19;63.03;94207.06;5025878;28;20421;-70
2022/02/17 00:25:00;;;;;;;0.00;0.00;;;;;;;12.92;63.05;94187.31;5034635;28;20021;-71
2022/02/17 00:27:26;;;;;;;0.10;0.10;;;;;;;13.38;61.30;94179.75;5034491;28;20033;-70
2022/02/17 00:29:51;;;;;;;0.10;0.10;;;;;;;13.27;61.88;94222.97;5034325;28;20102;-71
2022/02/17 00:32:16;;;;;;;0.85;0.30;;;;;;;13.05;61.76;94185.34;5016495;28;20531;-71
2022/02/17 00:34:42;;;;;;;0.20;0.20;;;;;;;13.58;60.95;94180.59;5016574;28;20104;-70
2022/02/17 00:37:07;;;;;;;0.10;0.08;;;;;;;13.46;61.34;94213.50;5037560;28;20030;-71
2022/02/17 00:39:34;;;;;;;2.45;0.08;;;;;;;13.84;60.15;94191.53;5033962;28;20029;-70
2022/02/17 00:42:00;;;;;;;0.20;0.10;;;;;;;13.69;60.22;94205.69;5034082;28;20474;-70
2022/02/17 00:44:26;;;;;;;0.00;0.00;;;;;;;13.57;60.21;94235.94;5034246;28;20032;-71
2022/02/17 00:46:51;;;;;;;1.55;0.10;;;;;;;14.07;58.20;94215.69;5034181;28;20029;-71
2022/02/17 00:49:17;;;;;;;0.00;0.00;;;;;;;13.85;58.47;94227.81;5033941;28;20575;-71
2022/02/17 00:51:43;;;;;;;0.20;0.00;;;;;;;14.42;56.98;94236.34;5018699;28;20372;-70
2022/02/17 00:54:08;;;;;;;0.10;0.00;;;;;;;14.63;56.99;94228.78;5033518;28;20029;-71
2022/02/17 00:56:35;;;;;;;0.17;0.10;;;;;;;13.90;58.31;94222.19;5016299;28;20124;-70
2022/02/17 00:59:00;;;;;;;0.13;0.05;;;;;;;14.07;58.06;94222.94;5016025;28;20057;-71
2022/02/17 01:01:26;;;;;;;0.77;0.10;;;;;;;14.16;57.23;94228.91;5033735;28;20125;-71
2022/02/17 01:03:51;;;;;;;0.90;0.40;;;;;;;13.91;57.54;94210.38;5033996;28;20044;-71
2022/02/17 01:06:17;;;;;;;0.00;0.00;;;;;;;14.69;55.58;94192.59;5017662;28;20037;-71
2022/02/17 01:08:42;;;;;;;0.00;0.00;;;;;;;14.34;56.28;94144.47;5051921;28;20028;-71
2022/02/17 01:11:10;;;;;;;1.10;0.10;;;;;;;14.14;57.27;94166.97;5053180;28;20025;-72
2022/02/17 01:13:36;;;;;;;0.13;0.00;;;;;;;14.22;56.77;94169.44;5053349;28;20036;-72
2022/02/17 01:16:01;;;;;;;0.00;0.00;;;;;;;14.41;56.75;94178.59;5035658;28;20025;-71
2022/02/17 01:18:27;;;;;;;0.00;0.00;;;;;;;13.94;57.95;94207.03;5053253;28;20021;-72
2022/02/17 01:20:52;;;;;;;0.50;0.00;;;;;;;14.56;56.15;94188.50;5035461;28;20017;-71
2022/02/17 01:23:18;;;;;;;0.03;0.00;;;;;;;14.52;56.16;94220.53;5036373;28;20025;-71
2022/02/17 01:25:44;;;;;;;0.10;0.10;;;;;;;13.90;57.38;94258.84;5015591;28;20033;-71
2022/02/17 01:28:10;;;;;;;0.10;0.00;;;;;;;14.18;57.04;94189.22;5033430;28;20021;-70
2022/02/17 01:30:36;;;;;;;0.00;0.00;;;;;;;14.41;56.42;94208.81;5032664;28;20385;-72
2022/02/17 01:33:02;;;;;;;0.00;0.00;;;;;;;14.02;57.14;94216.78;5033122;28;20052;-71
2022/02/17 01:35:28;;;;;;;0.45;0.10;;;;;;;14.74;55.31;94183.50;5033143;28;20021;-71
2022/02/17 01:37:53;;;;;;;0.05;0.05;;;;;;;14.15;57.08;94222.78;5034128;28;20075;-71
2022/02/17 01:40:19;;;;;;;0.25;0.00;;;;;;;14.84;55.00;94220.41;5014787;28;20026;-71
2022/02/17 01:42:45;;;;;;;0.00;0.00;;;;;;;14.30;56.19;94207.81;5033183;28;20083;-71
2022/02/17 01:45:11;;;;;;;1.17;0.00;;;;;;;13.85;57.77;94208.34;5032778;28;20536;-73
2022/02/17 01:47:36;;;;;;;0.00;0.00;;;;;;;13.91;57.00;94180.22;5032912;28;20030;-72
2022/02/17 01:50:02;;;;;;;0.00;0.00;;;;;;;14.22;56.15;94190.81;5032854;28;20393;-72
2022/02/17 01:52:28;;;;;;;0.08;0.08;;;;;;;14.73;54.87;94181.94;5032834;28;20025;-71
2022/02/17 01:54:54;;;;;;;0.10;0.10;;;;;;;14.65;53.89;94154.28;5032880;28;20629;-71
2022/02/17 01:57:23;;;;;;;0.28;0.00;;;;;;;15.14;53.51;94163.56;5014992;28;20469;-71
2022/02/17 01:59:49;;;;;;;0.00;0.00;;;;;;;14.36;55.01;94162.84;5032482;28;20037;-72
2022/02/17 02:02:14;;;;;;;0.80;0.00;;;;;;;14.43;54.58;94147.69;5014741;28;20026;-71
2022/02/17 02:04:40;;;;;;;0.00;0.00;;;;;;;14.67;53.87;94160.03;5014757;28;20025;-70
2022/02/17 02:07:06;;;;;;;0.75;0.00;;;;;;;14.13;54.86;94120.75;5020720;28;20028;-71
2022/02/17 02:09:32;;;;;;;0.10;0.00;;;;;;;14.99;52.44;94099.03;5050827;28;20029;-71
2022/02/17 02:11:58;;;;;;;0.55;0.05;;;;;;;15.02;52.89;94135.84;5034397;28;20491;-73
2022/02/17 02:14:24;;;;;;;0.00;0.00;;;;;;;15.27;51.56;94133.59;5052259;28;20056;-71
2022/02/17 02:16:50;;;;;;;0.10;0.00;;;;;;;14.83;52.04;94128.59;5052504;28;20393;-72
2022/02/17 02:19:16;;;;;;;0.00;0.00;;;;;;;14.60;52.96;94129.72;5052031;28;20052;-71
2022/02/17 02:21:41;;;;;;;0.60;0.00;;;;;;;14.99;52.04;94101.72;5051344;28;20033;-71
2022/02/17 02:24:07;;;;;;;0.00;0.00;;;;;;;15.37;51.04;94092.03;5034162;28;20028;-72
2022/02/17 02:26:32;;;;;;;0.35;0.00;;;;;;;14.95;51.33;94116.22;5052196;28;20025;-72
2022/02/17 02:28:59;;;;;;;0.43;0.00;;;;;;;15.46;49.93;94102.50;5051940;28;20557;-71
2022/02/17 02:31:25;;;;;;;0.57;0.03;;;;;;;14.64;51.07;94101.09;5033948;28;20025;-72
2022/02/17 02:33:51;;;;;;;0.20;0.10;;;;;;;15.03;50.71;94083.81;5051993;28;20029;-73
2022/02/17 02:36:16;;;;;;;0.10;0.08;;;;;;;15.06;50.19;94099.19;5052209;28;20108;-71
2022/02/17 02:38:42;;;;;;;0.00;0.00;;;;;;;15.03;50.36;94091.84;5039933;28;20086;-71
2022/02/17 02:41:08;;;;;;;0.00;0.00;;;;;;;14.90;50.46;94100.44;5013608;28;20021;-71
2022/02/17 02:43:34;;;;;;;3.20;0.20;;;;;;;14.96;50.79;94069.56;5014202;28;20026;-71
2022/02/17 02:45:59;;;;;;;0.00;0.00;;;;;;;15.06;50.21;94091.16;5031882;28;20022;-71
2022/02/17 02:48:25;;;;;;;0.00;0.00;;;;;;;14.94;50.18;94085.94;5031705;28;20024;-75
2022/02/17 02:50:50;;;;;;;0.43;0.00;;;;;;;15.12;50.22;94096.22;5031691;28;20048;-71
2022/02/17 02:53:18;;;;;;;0.03;0.00;;;;;;;15.01;50.08;94071.94;5038181;28;20197;-71
2022/02/17 02:55:48;;;;;;;0.55;0.10;;;;;;;15.10;49.82;94072.47;5014017;28;20017;-71
2022/02/17 02:58:14;;;;;;;0.10;0.10;;;;;;;15.13;49.66;94039.59;5031906;28;20129;-71
2022/02/17 03:00:45;;;;;;;0.20;0.00;;;;;;;14.99;49.30;94012.59;5031251;28;20033;-71
2022/02/17 03:03:11;;;;;;;0.28;0.10;;;;;;;15.27;48.73;94022.97;5031704;28;20477;-71
2022/02/17 03:05:36;;;;;;;0.63;0.10;;;;;;;14.91;49.92;94030.47;5014261;28;20037;-72
2022/02/17 03:08:02;;;;;;;0.00;0.00;;;;;;;14.37;51.12;94022.59;5019703;28;20394;-71
2022/02/17 03:10:30;;;;;;;0.10;0.00;;;;;;;14.67;50.17;94018.19;5040317;28;20021;-71
2022/02/17 03:12:56;;;;;;;0.10;0.10;;;;;;;14.79;49.84;94054.72;5051371;28;20017;-71
2022/02/17 03:15:22;;;;;;;1.27;0.10;;;;;;;14.84;49.42;94000.88;5051605;28;20063;-72
2022/02/17 03:17:48;;;;;;;0.10;0.05;;;;;;;15.03;48.85;94037.53;5033626;28;20063;-71
2022/02/17 03:20:13;;;;;;;1.23;0.10;;;;;;;14.79;49.61;94060.06;5050817;28;20029;-72
2022/02/17 03:22:40;;;;;;;0.00;0.00;;;;;;;14.84;49.87;94038.34;5047961;28;20030;-71
2022/02/17 03:25:11;;;;;;;0.08;0.08;;;;;;;14.53;50.31;94032.09;5031128;28;20100;-70
2022/02/17 03:27:37;;;;;;;0.00;0.00;;;;;;;14.70;49.90;94035.47;5031385;28;20030;-72
2022/02/17 03:30:04;;;;;;;0.08;0.05;;;;;;;14.92;49.48;94033.91;5013019;28;20114;-70
2022/02/17 03:32:29;;;;;;;0.10;0.00;;;;;;;14.56;50.35;94009.97;5031055;28;20049;-70
2022/02/17 03:34:55;;;;;;;0.00;0.00;;;;;;;15.05;48.95;94021.88;5013425;28;20026;-71
2022/02/17 03:37:20;;;;;;;0.03;0.00;;;;;;;15.05;49.00;94021.88;5035922;28;20032;-71
2022/02/17 03:39:46;;;;;;;0.00;0.00;;;;;;;14.38;50.69;93995.47;5030827;28;20029;-71
2022/02/17 03:42:11;;;;;;;0.00;0.00;;;;;;;14.78;49.62;93994.28;5030763;28;20026;-71
2022/02/17 03:44:37;;;;;;;3.78;0.10;;;;;;;14.59;50.13;93995.13;5031292;28;20576;-72
2022/02/17 03:47:02;;;;;;;1.08;0.00;;;;;;;14.74;49.52;93988.09;5030865;28;20112;-70
2022/02/17 03:49:28;;;;;;;0.00;0.00;;;;;;;14.97;49.26;93988.09;5030710;28;20436;-71
2022/02/17 03:51:53;;;;;;;0.55;0.22;;;;;;;14.75;50.10;93990.44;5013016;28;20018;-71
2022/02/17 03:54:19;;;;;;;0.00;0.00;;;;;;;14.31;50.76;93995.38;5033605;28;20464;-71
2022/02/17 03:56:45;;;;;;;0.10;0.00;;;;;;;14.66;49.62;93999.81;5030097;28;20025;-70
2022/02/17 03:59:10;;;;;;;0.00;0.00;;;;;;;14.42;50.11;94028.44;5030149;28;20022;-71
2022/02/17 04:01:37;;;;;;;0.00;0.00;;;;;;;14.57;50.23;93998.16;5030826;28;20029;-71
2022/02/17 04:04:05;;;;;;;0.20;0.00;;;;;;;14.22;50.32;94025.00;5030894;28;20026;-70
2022/02/17 04:06:31;;;;;;;0.00;0.00;;;;;;;14.20;50.92;94005.88;5030959;28;20489;-70
2022/02/17 04:08:56;;;;;;;0.00;0.00;;;;;;;14.88;49.51;94022.34;5015984;28;20097;-70
2022/02/17 04:11:22;;;;;;;0.98;0.00;;;;;;;14.49;50.16;94015.22;5012885;28;20033;-70
2022/02/17 04:13:49;;;;;;;0.10;0.10;;;;;;;14.36;50.71;94023.72;5013078;28;20416;-70
2022/02/17 04:16:16;;;;;;;0.95;0.00;;;;;;;14.36;50.91;94015.69;5012954;28;20029;-70
2022/02/17 04:18:41;;;;;;;0.00;0.00;;;;;;;14.72;49.94;94019.81;5030309;28;20091;-70
2022/02/17 04:21:08;;;;;;;0.00;0.00;;;;;;;14.53;50.78;94025.97;5012849;28;20022;-70
2022/02/17 04:23:34;;;;;;;0.28;0.05;;;;;;;14.38;51.02;94032.94;5041590;28;20044;-70
2022/02/17 04:26:00;;;;;;;0.32;0.00;;;;;;;14.37;51.05;94031.38;5044366;28;20021;-70
2022/02/17 04:28:25;;;;;;;0.20;0.00;;;;;;;14.30;51.03;94032.03;5032628;28;20074;-70
2022/02/17 04:30:50;;;;;;;1.65;0.10;;;;;;;14.38;51.24;94034.84;5050206;28;20083;-70
2022/02/17 04:33:16;;;;;;;0.00;0.00;;;;;;;14.31;51.01;94033.59;5050575;28;20033;-70
2022/02/17 04:35:41;;;;;;;1.65;0.00;;;;;;;14.61;50.54;94026.88;5050501;28;20523;-71
2022/02/17 04:38:07;;;;;;;0.20;0.10;;;;;;;14.20;51.89;94021.16;5050334;28;20025;-71
2022/02/17 04:43:16;;;;;;;0.28;0.28;;;;;;;14.36;51.39;94005.78;5050660;28;20750;-71
2022/02/17 04:45:41;;;;;;;0.00;0.00;;;;;;;14.19;51.48;93996.31;5050345;28;20108;-71
2022/02/17 04:48:07;;;;;;;0.13;0.10;;;;;;;13.99;52.42;94042.91;5049965;28;20027;-71
2022/02/17 04:50:33;;;;;;;0.00;0.00;;;;;;;13.83;52.36;94042.19;5031649;28;20025;-71
2022/02/17 04:52:58;;;;;;;0.00;0.00;;;;;;;14.11;51.96;94007.97;5044003;28;20045;-70
2022/02/17 04:55:24;;;;;;;0.00;0.00;;;;;;;14.60;51.00;94025.34;5029952;28;20367;-71
2022/02/17 04:57:50;;;;;;;0.05;0.05;;;;;;;14.21;51.14;94003.97;5030230;28;20030;-70
2022/02/17 05:00:16;;;;;;;0.00;0.00;;;;;;;13.87;52.58;94027.78;5030063;28;20034;-71
2022/02/17 05:02:42;;;;;;;0.03;0.00;;;;;;;14.19;52.44;94041.78;5030222;28;20026;-70
2022/02/17 05:05:07;;;;;;;0.00;0.00;;;;;;;14.18;52.22;94028.75;5033200;28;20025;-70
2022/02/17 05:07:33;;;;;;;0.00;0.00;;;;;;;13.80;53.05;94059.69;5017234;28;20036;-70
2022/02/17 05:09:58;;;;;;;0.08;0.00;;;;;;;14.56;51.84;94052.03;5033219;28;20049;-70
2022/02/17 05:12:23;;;;;;;0.10;0.10;;;;;;;14.44;52.09;94063.66;5015948;28;20057;-72
2022/02/17 05:14:49;;;;;;;0.00;0.00;;;;;;;13.78;53.66;94056.59;5015841;28;20479;-70
2022/02/17 05:17:14;;;;;;;0.00;0.00;;;;;;;14.22;53.08;94120.50;5034033;28;20025;-71
2022/02/17 05:19:40;;;;;;;0.00;0.00;;;;;;;13.91;54.23;94073.28;5033158;28;20029;-69
2022/02/17 05:22:05;;;;;;;0.85;0.00;;;;;;;13.93;54.10;94093.19;5015951;28;20576;-70
2022/02/17 05:24:30;;;;;;;0.30;0.05;;;;;;;14.14;53.75;94054.66;5024502;28;20074;-69
2022/02/17 05:26:56;;;;;;;0.10;0.10;;;;;;;13.90;54.61;94085.88;5033018;28;20119;-70
2022/02/17 05:29:22;;;;;;;0.68;0.00;;;;;;;14.10;54.03;94075.19;5031836;28;20438;-70
2022/02/17 05:31:48;;;;;;;0.00;0.00;;;;;;;13.59;55.47;94060.00;5033227;28;20025;-70
2022/02/17 05:34:13;;;;;;;0.40;0.40;;;;;;;13.72;55.23;94060.69;5033238;28;20458;-70
2022/02/17 05:36:40;;;;;;;0.85;0.10;;;;;;;13.48;55.73;94088.41;5033155;28;20057;-70
2022/02/17 05:39:06;;;;;;;0.90;0.00;;;;;;;14.70;52.76;94075.59;5032895;28;20033;-70
2022/02/17 05:41:32;;;;;;;0.45;0.00;;;;;;;13.83;54.98;94048.31;5032831;28;20392;-71
2022/02/17 05:43:57;;;;;;;0.00;0.00;;;;;;;13.73;55.38;94083.59;5015370;28;20116;-71
2022/02/17 05:46:23;;;;;;;0.00;0.00;;;;;;;13.62;55.57;94061.22;5033123;28;20025;-70
2022/02/17 05:48:48;;;;;;;0.20;0.00;;;;;;;13.83;55.02;94042.19;5032652;28;20029;-70
2022/02/17 05:51:17;;;;;;;0.10;0.05;;;;;;;13.57;55.61;94038.22;5032409;28;20386;-71
2022/02/17 05:53:43;;;;;;;2.95;0.20;;;;;;;13.83;55.44;94106.34;5040470;28;20029;-71
2022/02/17 05:56:09;;;;;;;0.10;0.10;;;;;;;13.75;55.64;94067.97;5014500;28;20020;-70
2022/02/17 05:58:34;;;;;;;1.10;0.25;;;;;;;14.13;54.72;94035.16;5032434;28;20117;-70
2022/02/17 06:01:00;;;;;;;0.17;0.10;;;;;;;13.66;55.91;94051.38;5032435;28;20025;-70
2022/02/17 06:03:25;;;;;;;0.10;0.05;;;;;;;13.55;56.42;94085.09;5032718;28;20418;-70
2022/02/17 06:05:51;;;;;;;0.47;0.10;;;;;;;14.13;54.84;94082.53;5032495;28;20026;-70
2022/02/17 06:08:16;;;;;;;0.22;0.10;;;;;;;13.57;56.78;94054.25;5039474;28;20037;-70
2022/02/17 06:10:43;;;;;;;0.30;0.00;;;;;;;13.63;56.39;94046.75;5032067;28;20097;-70
2022/02/17 06:13:09;;;;;;;0.63;0.20;;;;;;;13.87;55.80;94075.09;5014211;28;20068;-70
2022/02/17 06:15:36;;;;;;;0.52;0.10;;;;;;;13.73;56.02;94071.00;5031588;28;20033;-70
2022/02/17 06:18:04;;;;;;;0.13;0.00;;;;;;;13.59;56.33;94067.25;5032517;28;20105;-70
2022/02/17 06:20:30;;;;;;;0.00;0.00;;;;;;;13.73;56.10;94092.41;5079472;22;20052;-69
2022/02/17 06:22:56;;;;;;;1.85;0.13;;;;;;;13.68;56.05;94073.97;5071258;28;20074;-69
2022/02/17 06:25:21;;;;;;;0.20;0.00;;;;;;;13.60;55.92;94079.47;5054734;28;20021;-68
2022/02/17 06:27:48;;;;;;;1.27;0.08;;;;;;;13.60;56.61;94084.84;5050551;28;20029;-68
2022/02/17 06:30:15;;;;;;;0.00;0.00;;;;;;;13.98;55.33;94094.81;5049772;28;20021;-68
2022/02/17 06:32:45;;;;;;;0.08;0.08;;;;;;;14.37;54.07;94068.06;5050571;28;20091;-69
2022/02/17 06:35:11;;;;;;;0.10;0.00;;;;;;;14.03;54.54;93996.41;5051291;28;20032;-68
2022/02/17 06:37:36;;;;;;;0.20;0.10;;;;;;;14.68;53.39;94069.81;5051566;28;20021;-68
2022/02/17 06:40:02;;;;;;;0.10;0.00;;;;;;;14.35;53.84;94075.69;5070153;28;20117;-67
2022/02/17 06:42:27;;;;;;;0.30;0.10;;;;;;;14.66;52.96;94075.53;5071773;28;20042;-68
2022/02/17 06:44:53;;;;;;;1.52;0.10;;;;;;;14.91;52.07;94072.53;5072220;28;20032;-68
2022/02/17 06:47:18;;;;;;;0.17;0.10;;;;;;;14.41;53.35;94093.00;5061939;28;20033;-65
2022/02/17 06:49:44;;;;;;;0.00;0.00;;;;;;;13.82;55.66;94112.78;5053674;28;20052;-69
2022/02/17 06:52:09;;;;;;;0.20;0.10;;;;;;;14.22;54.15;94112.50;5053502;28;20035;-66
2022/02/17 06:54:36;;;;;;;0.10;0.10;;;;;;;13.87;55.30;94099.94;5061551;28;20522;-71
2022/02/17 06:57:01;;;;;;;1.00;0.00;;;;;;;13.57;55.32;94062.28;5050615;28;20029;-68
2022/02/17 06:59:27;;;;;;;0.00;0.00;;;;;;;13.74;56.26;94107.31;5049831;28;20040;-68
2022/02/17 07:01:52;;;;;;;0.00;0.00;;;;;;;13.22;56.64;94096.94;5049714;28;20120;-71
2022/02/17 07:04:21;;;;;;;1.55;0.17;;;;;;;14.65;53.72;94127.53;5051710;28;20024;-69
2022/02/17 07:06:48;;;;;;;0.13;0.00;;;;;;;14.15;54.90;94110.44;5051290;28;20050;-67
2022/02/17 07:09:13;;;;;;;0.35;0.00;;;;;;;14.11;54.95;94085.53;5055498;28;20075;-69
2022/02/17 07:11:39;;;;;;;1.80;0.20;;;;;;;13.69;55.75;94085.41;5050862;28;20424;-71
2022/02/17 07:14:04;;;;;;;0.00;0.00;;;;;;;13.10;57.46;94100.44;5051210;28;20088;-68
2022/02/17 07:16:29;;;;;;;0.20;0.10;;;;;;;13.36;56.92;94107.19;5050803;28;20103;-69
2022/02/17 07:18:55;;;;;;;0.20;0.00;;;;;;;13.10;57.37;94080.97;5049573;28;20060;-67
2022/02/17 07:21:20;;;;;;;0.10;0.10;;;;;;;13.92;56.30;94157.69;5050870;28;20025;-70
2022/02/17 07:23:46;;;;;;;0.57;0.10;;;;;;;14.07;56.08;94145.41;5051252;28;20032;-69
2022/02/17 07:26:12;;;;;;;0.10;0.10;;;;;;;13.77;55.52;94082.56;5049804;28;20021;-67
2022/02/17 07:28:37;;;;;;;0.00;0.00;;;;;;;14.37;55.30;94151.78;5050523;28;20035;-69
2022/02/17 07:31:03;;;;;;;0.00;0.00;;;;;;;14.54;54.74;94126.53;5050667;28;20400;-66
2022/02/17 07:33:29;;;;;;;0.00;0.00;;;;;;;14.20;54.87;94117.44;5050990;28;20575;-65
2022/02/17 07:35:55;;;;;;;0.80;0.10;;;;;;;13.89;55.82;94118.31;5050987;28;20021;-67
2022/02/17 07:38:20;;;;;;;0.15;0.00;;;;;;;13.70;56.83;94117.13;5054773;28;20033;-66
2022/02/17 07:40:46;;;;;;;0.80;0.00;;;;;;;14.22;55.92;94123.19;5070166;28;20115;-66
2022/02/17 07:43:11;;;;;;;0.03;0.03;;;;;;;13.52;57.82;94151.47;5071881;28;20024;-67
2022/02/17 07:45:37;;;;;;;4.65;0.10;;;;;;;14.45;55.95;94160.72;5070591;28;20021;-67
2022/02/17 07:48:03;;;;;;;0.00;0.00;;;;;;;14.06;56.80;94158.00;5070561;28;20107;-66
2022/02/17 07:50:29;;;;;;;0.20;0.05;;;;;;;14.40;55.18;94161.78;5070310;28;20106;-67
2022/02/17 07:52:55;;;;;;;0.10;0.03;;;;;;;14.60;54.80;94180.56;5068763;28;20469;-67
2022/02/17 07:55:20;;;;;;;0.00;0.00;;;;;;;14.35;53.66;94103.22;5053269;28;20092;-69
2022/02/17 07:57:46;;;;;;;0.38;0.10;;;;;;;14.40;53.80;94128.91;5050650;28;20428;-70
2022/02/17 08:00:13;;;;;;;0.10;0.10;;;;;;;15.29;52.63;94184.13;5050678;28;20075;-69
2022/02/17 08:02:40;;;;;;;0.00;0.00;;;;;;;14.49;53.04;94100.06;5051322;28;20057;-70
2022/02/17 08:05:06;;;;;;;0.20;0.17;;;;;;;14.33;53.74;94084.06;5049873;28;20475;-69
2022/02/17 08:07:31;;;;;;;0.00;0.00;;;;;;;14.41;54.09;94192.00;5051269;28;20029;-69
2022/02/17 08:09:58;;;;;;;0.00;0.00;;;;;;;14.92;52.27;94147.13;5052915;28;20075;-70
2022/02/17 08:12:23;;;;;;;0.05;0.05;;;;;;;13.66;53.67;94021.97;5050797;28;20033;-68
2022/02/17 08:14:49;;;;;;;1.50;0.10;;;;;;;14.00;57.10;94183.47;5050421;28;20493;-70
2022/02/17 08:17:14;;;;;;;1.30;0.10;;;;;;;13.42;60.34;94164.56;5050557;28;20021;-69
2022/02/17 08:19:40;;;;;;;0.65;0.10;;;;;;;13.74;60.66;94202.75;5048794;28;20699;-68
2022/02/17 08:22:05;;;;;;;0.13;0.13;;;;;;;12.90;63.25;94131.63;5050266;28;20031;-67
2022/02/17 08:24:31;;;;;;;0.60;0.10;;;;;;;13.28;62.83;94197.03;5049982;28;20025;-67
2022/02/17 08:26:56;;;;;;;1.38;0.20;;;;;;;13.24;63.62;94206.84;5050340;28;20105;-68
2022/02/17 08:29:26;;;;;;;2.72;0.22;;;;;;;12.98;64.51;94178.72;5049778;28;20021;-68
2022/02/17 08:31:51;;;;;;;0.00;0.00;;;;;;;13.31;63.01;94223.06;5050295;28;20059;-69
2022/02/17 08:34:17;;;;;;;1.45;0.20;;;;;;;13.58;62.33;94223.34;5049919;28;20053;-66
2022/02/17 08:36:43;;;;;;;0.00;0.00;;;;;;;12.54;64.29;94150.44;5050156;28;20473;-70
2022/02/17 08:39:09;;;;;;;1.75;0.10;;;;;;;12.67;62.88;94197.31;5059585;28;20074;-71
2022/02/17 08:41:36;;;;;;;0.00;0.00;;;;;;;12.31;60.01;94036.34;5073705;28;20059;-68
2022/02/17 08:44:03;;;;;;;0.00;0.00;;;;;;;13.52;60.48;94223.59;5074029;28;20059;-69
2022/02/17 08:46:28;;;;;;;0.52;0.20;;;;;;;13.37;59.70;94216.34;5074056;28;20473;-69
2022/02/17 08:48:53;;;;;;;0.30;0.20;;;;;;;13.83;58.48;94248.78;5073435;28;20074;-70
2022/02/17 08:51:22;;;;;;;0.10;0.00;;;;;;;13.86;57.41;94215.22;5072740;28;20383;-69
2022/02/17 08:53:47;;;;;;;0.20;0.10;;;;;;;14.29;57.48;94249.06;5069234;28;20025;-69
2022/02/17 08:56:13;;;;;;;0.10;0.10;;;;;;;14.60;59.02;94279.56;5053624;28;20549;-69
2022/02/17 08:58:39;;;;;;;0.00;0.00;;;;;;;13.23;63.47;94205.31;5053333;28;20032;-70
2022/02/17 09:01:04;;;;;;;0.20;0.10;;;;;;;12.99;63.71;94214.19;5053489;28;20477;-69
2022/02/17 09:03:30;;;;;;;0.00;0.00;;;;;;;12.78;66.73;94256.31;5053704;28;20071;-68
2022/02/17 09:05:55;;;;;;;0.80;0.30;;;;;;;12.24;71.04;94321.44;5053509;28;20112;-70
2022/02/17 09:08:21;;;;;;;0.15;0.08;;;;;;;10.98;73.59;94153.38;5053322;28;20469;-67
2022/02/17 09:10:50;;;;;;;0.10;0.10;;;;;;;11.43;74.57;94214.56;5053280;28;20021;-68
2022/02/17 09:13:15;;;;;;;0.38;0.10;;;;;;;11.60;75.58;94253.53;5053055;28;20013;-67
2022/02/17 09:15:41;;;;;;;0.40;0.30;;;;;;;11.84;74.13;94210.16;5051660;28;20025;-68
2022/02/17 09:18:07;;;;;;;1.38;0.50;;;;;;;11.58;74.75;94159.09;5053358;28;20032;-69
2022/02/17 09:20:32;;;;;;;1.65;0.25;;;;;;;12.32;75.35;94328.53;5052613;28;20033;-69
2022/02/17 09:22:59;;;;;;;0.38;0.22;;;;;;;12.32;74.66;94261.88;5053128;28;20021;-68
2022/02/17 09:25:25;;;;;;;1.02;0.35;;;;;;;12.03;75.15;94332.22;5059646;28;20049;-68
2022/02/17 09:27:50;;;;;;;4.13;0.30;;;;;;;12.07;75.75;94333.06;5053034;28;20064;-68
2022/02/17 09:30:16;;;;;;;13.07;0.70;;;;;;;12.43;75.63;94316.28;5052525;28;20067;-68
2022/02/17 09:32:41;;;;;;;2.70;0.80;;;;;;;12.52;75.72;94318.84;5052774;28;20024;-69
2022/02/17 09:35:11;;;;;;;3.85;0.90;;;;;;;12.03;74.10;94129.66;5052719;28;20497;-68
2022/02/17 09:37:39;;;;;;;1.35;0.40;;;;;;;11.76;75.11;94208.34;5052884;28;20377;-69
2022/02/17 09:40:06;;;;;;;1.27;0.80;;;;;;;12.78;74.81;94323.81;5059693;28;20545;-67
2022/02/17 09:42:37;;;;;;;1.02;0.40;;;;;;;12.70;75.28;94332.72;5052296;28;20035;-68
2022/02/17 09:45:08;;;;;;;5.60;0.30;;;;;;;12.12;76.16;94313.41;5052649;28;20061;-68
2022/02/17 09:47:35;;;;;;;1.17;0.80;;;;;;;12.95;73.81;94296.84;5052907;28;20017;-69
2022/02/17 09:50:01;;;;;;;1.60;0.80;;;;;;;12.01;75.14;94248.34;5051404;28;20024;-68
2022/02/17 09:52:27;;;;;;;4.35;1.30;;;;;;;12.65;73.77;94271.59;5052508;28;20033;-67
2022/02/17 09:54:54;;;;;;;5.07;0.55;;;;;;;11.59;77.41;94301.78;5052608;28;20087;-68
2022/02/17 09:57:22;;;;;;;3.47;0.57;;;;;;;11.86;78.10;94333.16;5052459;28;20104;-69
2022/02/17 09:59:48;;;;;;;16.63;1.83;;;;;;;12.43;76.30;94302.19;5051130;28;20036;-68
2022/02/17 10:02:25;;;;;;;12.32;1.15;;;;;;;12.34;77.29;94371.66;5052334;28;20032;-69
2022/02/17 10:04:58;;;;;;;8.70;0.70;;;;;;;11.77;78.80;94380.41;5052180;28;20100;-68
2022/02/17 10:07:35;;;;;;;0.73;0.45;;;;;;;11.45;78.85;94348.13;5052566;28;20060;-69
2022/02/17 10:10:06;;;;;;;1.15;0.50;;;;;;;11.95;77.46;94349.84;5057835;28;20044;-68
2022/02/17 10:12:55;;;;;;;0.20;0.20;;;;;;;12.45;77.83;94362.09;5050773;28;20045;-69
2022/02/17 10:15:37;;;;;;;0.93;0.50;;;;;;;12.07;75.94;94329.63;5052155;28;20481;-69
2022/02/17 10:18:08;;;;;;;0.47;0.30;;;;;;;12.48;76.91;94390.75;5052644;28;20029;-68
2022/02/17 10:20:52;;;;;;;0.22;0.22;;;;;;;12.02;76.46;94383.94;5051762;28;20036;-71
2022/02/17 10:23:19;;;;;;;0.22;0.20;;;;;;;11.91;77.90;94412.91;5053274;28;20381;-70
2022/02/17 10:26:04;;;;;;;1.13;0.10;;;;;;;11.87;77.12;94414.66;5057020;28;20086;-71
2022/02/17 10:28:34;;;;;;;2.17;0.30;;;;;;;11.88;76.99;94394.91;5052009;28;20029;-71
2022/02/17 10:31:00;;;;;;;0.73;0.30;;;;;;;12.28;76.49;94420.97;5050487;28;20060;-69
2022/02/17 10:33:40;;;;;;;1.50;0.38;;;;;;;11.74;78.38;94458.34;5050905;28;20017;-73
2022/02/17 10:36:06;;;;;;;5.53;1.00;;;;;;;11.91;74.71;94394.25;5050848;28;20477;-71
2022/02/17 10:38:32;;;;;;;2.00;0.70;;;;;;;10.34;76.48;94385.88;5050142;28;20060;-69
2022/02/17 10:40:57;;;;;;;8.73;1.30;;;;;;;11.39;76.51;94445.31;5056643;28;20437;-70
2022/02/17 10:43:29;;;;;;;7.35;1.30;;;;;;;10.78;76.77;94348.41;5050416;28;20029;-71
2022/02/17 10:46:03;;;;;;;8.57;2.63;;;;;;;11.81;74.59;94445.25;5051895;28;20056;-68
2022/02/17 10:48:29;;;;;;;2.60;0.73;;;;;;;10.63;77.51;94421.53;5051600;28;20037;-67
2022/02/17 10:51:16;;;;;;;7.78;1.65;;;;;;;11.04;75.98;94372.16;5051354;28;20021;-69
2022/02/17 10:53:45;;;;;;;1.58;0.60;;;;;;;10.81;77.43;94484.22;5051503;28;20108;-68
2022/02/17 10:56:12;;;;;;;5.68;1.33;;;;;;;10.75;77.98;94466.88;5054297;28;20017;-68
2022/02/17 10:58:46;;;;;;;8.57;1.60;;;;;;;10.96;78.10;94506.06;5051268;28;20020;-68
2022/02/17 11:01:13;;;;;;;2.28;1.00;;;;;;;10.63;78.28;94538.56;5049849;28;20021;-67
2022/02/17 11:03:40;;;;;;;5.38;1.05;;;;;;;10.53;78.54;94507.00;5051209;28;20024;-68
2022/02/17 11:06:11;;;;;;;6.30;1.80;;;;;;;11.60;75.63;94497.78;5051456;28;20053;-68
2022/02/17 11:08:36;;;;;;;3.50;1.67;;;;;;;11.09;75.76;94463.22;5051013;28;20104;-68
2022/02/17 11:11:04;;;;;;;2.95;1.02;;;;;;;10.51;75.35;94408.94;5054451;28;20143;-68
2022/02/17 11:13:31;;;;;;;6.68;0.82;;;;;;;10.88;75.87;94444.56;5050585;28;20029;-68
2022/02/17 11:15:59;;;;;;;3.45;0.90;;;;;;;10.59;74.45;94418.75;5051087;28;20028;-68
2022/02/17 11:18:25;;;;;;;1.42;0.45;;;;;;;11.37;74.76;94506.13;5050677;28;20033;-67
2022/02/17 11:20:53;;;;;;;2.83;0.80;;;;;;;10.38;74.77;94413.38;5050777;28;20087;-67
2022/02/17 11:23:19;;;;;;;5.25;1.85;;;;;;;11.36;74.30;94523.19;5050966;28;20033;-67
2022/02/17 11:25:47;;;;;;;4.57;1.02;;;;;;;11.41;74.47;94572.78;5053642;28;20032;-68
2022/02/17 11:28:15;;;;;;;2.78;0.65;;;;;;;10.76;73.55;94449.81;5050852;28;20021;-67
2022/02/17 11:30:56;;;;;;;2.42;0.88;;;;;;;11.13;74.24;94505.94;5050144;28;20028;-68
2022/02/17 11:33:28;;;;;;;2.17;1.08;;;;;;;11.70;71.43;94556.78;5050735;28;20021;-68